Pagina principală
METAR-TAF:

METAR-TAF

Aeroporturi :

Ottawa, Kansas, Statele Unite ale Americii

Latitudine: 38-32-20N, longitudine: 095-15-10W, elevație: 295 m

Observații meteo curente

Raportul a fost făcut în urmă cu 29 de minute, la 13:15 UTC
Vânt 9 kt de la Sud/Sud-est
Temperatură 27°C
Umiditate 79%
Presiune 1014 hPa
Vizibilitate: 16.1 km
Cer senin

METAR: KOWI 151315Z AUTO 16009KT 10SM CLR 27/23 A2995 RMK AO2 LTG DSNT N PWINO

Ora: 08:44 (13:44 UTC)


TAF: lipsă

Observații și prognoze meteo pentru peste 4.000 de aeroporturi (rapoarte METAR și TAF).

Stațiile disponibile sunt reprezentate pe hartă prin puncte galbene și roșii.

Țineți indicatorul mouse-ului pe punctul dorit pentru a vedea denumirea stației.

Apoi, faceți clic pentru a vedea observațiile și prognozele meteorologice.

Pentru a schimba harta: Pentru mărire, faceți clic pe butoanele verzi cu cruce neagră; pentru micșorare, pe butonul verde cu o liniuță; pentru hărți învecinate, pe săgețile verzi.


METAR-TAF: